• Join FlightAware (Why Join?)
  • Login
  • US Flag 
04:33AM EDT


 

Airport Tracker/Info


-or-


 

Live Flight TrackerFlight Track Log ✈ N952DA ✈ 17-Jul-2014 ✈ KOPF - KTMB

Flight Track Log - Related Links

Times and Time Zones

All times are in EDT time to prevent confusion due to time zone crossing. See the N952DA flight status page for this flight to view local times or setup timezone preferences in your user account.

Time Position Orientation Groundspeed Altitude Reporting Facility
EDT Latitude Longitude Course Direction KTS MPH feet Rate Location/Type
06:46PM 25.9100 -80.3061 260° West 101 116 900  Level Miami Center
06:47PM 25.9086 -80.3372 267° West 96 110 1,900 480 Climbing Miami Center
06:48PM 25.9058 -80.3731 265° West 131 151 1,900  Level Miami Center
06:49PM 25.9053 -80.4122 269° West 121 139 1,900  Level Miami Center
06:50PM 25.9050 -80.4517 270° West 128 147 1,900 60 Level Miami Center
06:50PM 25.9056 -80.4489 77° East 125 144 2,000  Climbing Miami Center
06:51PM 25.9044 -80.4908 268° West 130 150 1,900  Descending Miami Center
06:51PM 25.9047 -80.4967 273° West 127 146 2,000  Climbing Miami Center
06:52PM 25.8878 -80.5244 236° Southwest 134 154 1,900  Descending Miami Center
06:52PM 25.8847 -80.5267 213° Southwest 138 159 2,000  Climbing Miami Center
06:53PM 25.8611 -80.5456 216° Southwest 134 154 1,900  Descending Miami Center
06:53PM 25.8558 -80.5508 222° Southwest 135 155 2,000  Climbing Miami Center
06:54PM 25.8264 -80.5636 201° Southwest 138 159 1,900  Descending Miami Center
06:54PM 25.8211 -80.5628 172° South 136 157 2,000  Climbing Miami Center
06:55PM 25.7894 -80.5536 165° South 141 162 1,900  Descending Miami Center
06:55PM 25.7839 -80.5497 148° Southeast 139 160 2,000  Climbing Miami Center
06:56PM 25.7531 -80.5322 153° Southeast 144 166 1,900 -120 Descending Miami Center
06:56PM 25.7478 -80.5292 152° Southeast 141 162 1,900 -540 Level Miami Center
06:57PM 25.7147 -80.5106 153° Southeast 158 182 1,400 -540 Descending Miami Center
06:57PM 25.7044 -80.5036 149° Southeast 150 173 1,400 -360 Level Miami Center
06:58PM 25.6792 -80.4756 135° Southeast 154 177 1,000 -420 Descending Miami Center
06:58PM 25.6744 -80.4656 118° Southeast 151 174 1,000 -120 Level Miami Center
06:59PM 25.6714 -80.4333 96° East 132 152 900 -120 Descending Miami Center
06:59PM 25.6708 -80.4253 94° East 135 155 900 -420 Level Miami Center
07:00PM 25.6517 -80.4178 161° South 85 98 500 -600 Descending Miami Center
07:00PM 25.6461 -80.4175 177° South 88 101 300 -360 Descending Miami Center
07:01PM 25.6292 -80.4325 219° Southwest 82 94 100 -240 Descending Miami Center